createdAt,value
2023-07-25T00:02:56.202Z,50.80
2023-07-25T00:08:18.676Z,34.85
2023-07-25T00:13:40.785Z,32.63
2023-07-25T00:19:04.360Z,27.92
2023-07-25T00:24:26.359Z,19.80
2023-07-25T00:29:48.833Z,28.83
2023-07-25T00:35:12.877Z,32.63
2023-07-25T00:40:39.573Z,23.40
2023-07-25T00:46:01.868Z,27.10
2023-07-25T00:51:32.415Z,22.70
2023-07-25T00:57:01.651Z,18.23
2023-07-25T01:02:23.722Z,29.98
2023-07-25T01:07:47.509Z,14.65
2023-07-25T01:13:11.151Z,15.10
2023-07-25T01:18:33.675Z,17.60
2023-07-25T01:24:01.832Z,15.27
2023-07-25T01:29:25.684Z,16.88
2023-07-25T01:34:47.667Z,15.13
2023-07-25T01:40:10.381Z,13.00
2023-07-25T01:45:34.611Z,8.80
2023-07-25T01:50:58.669Z,7.97
2023-07-25T01:56:21.329Z,8.25
2023-07-25T02:01:44.759Z,6.30
2023-07-25T02:07:07.121Z,7.10
2023-07-25T02:12:31.136Z,11.85
2023-07-25T02:17:54.890Z,5.32
2023-07-25T02:23:17.034Z,8.18
2023-07-25T02:28:39.373Z,11.70
2023-07-25T02:34:03.394Z,5.85
2023-07-25T02:39:25.482Z,4.85
2023-07-25T02:44:47.755Z,5.55
2023-07-25T02:50:11.878Z,8.38
2023-07-25T02:55:33.808Z,5.78
2023-07-25T03:00:56.122Z,5.60
2023-07-25T03:06:19.996Z,6.15
2023-07-25T03:11:42.537Z,8.43
2023-07-25T03:17:04.837Z,8.02
2023-07-25T03:22:28.392Z,4.13
2023-07-25T03:27:50.380Z,14.27
2023-07-25T03:33:12.262Z,17.77
2023-07-25T03:38:41.925Z,26.33
2023-07-25T03:44:10.822Z,24.92
2023-07-25T03:49:39.828Z,22.85
2023-07-25T03:55:03.157Z,15.30
2023-07-25T04:00:25.363Z,32.03
2023-07-25T04:05:53.395Z,12.67
2023-07-25T04:11:17.130Z,9.98
2023-07-25T04:16:39.130Z,19.15
2023-07-25T04:22:00.960Z,10.50
2023-07-25T04:27:24.213Z,7.80
2023-07-25T04:32:46.775Z,7.82
2023-07-25T04:38:08.696Z,9.27
2023-07-25T04:43:32.000Z,9.95
2023-07-25T04:48:54.138Z,15.85
2023-07-25T04:54:16.598Z,9.32
2023-07-25T04:59:40.126Z,11.35
2023-07-25T05:05:02.208Z,16.73
2023-07-25T05:10:24.476Z,18.20
2023-07-25T05:15:47.985Z,9.73
2023-07-25T05:21:10.281Z,12.73
2023-07-25T05:26:32.359Z,10.73
2023-07-25T05:31:56.182Z,13.80
2023-07-25T05:37:19.449Z,8.57
2023-07-25T05:42:41.363Z,17.33
2023-07-25T05:48:05.488Z,19.73
2023-07-25T05:53:27.328Z,13.07
2023-07-25T05:58:50.007Z,13.80
2023-07-25T06:04:14.952Z,15.27
2023-07-25T06:09:36.693Z,11.73
2023-07-25T06:14:59.059Z,9.32
2023-07-25T06:20:22.409Z,7.18
2023-07-25T06:25:44.342Z,10.48
2023-07-25T06:31:06.684Z,8.95
2023-07-25T06:36:29.980Z,14.98
2023-07-25T06:41:52.253Z,15.35
2023-07-25T06:47:16.253Z,13.63
2023-07-25T06:52:39.850Z,9.48
2023-07-25T06:58:03.011Z,16.83
2023-07-25T07:03:25.521Z,14.05
2023-07-25T07:08:49.609Z,10.77
2023-07-25T07:14:11.741Z,11.63
2023-07-25T07:19:33.648Z,13.57
2023-07-25T07:24:58.516Z,5.88
2023-07-25T07:30:27.433Z,7.68
2023-07-25T07:35:49.453Z,5.47
2023-07-25T07:41:13.602Z,6.93
2023-07-25T07:46:36.900Z,5.82
2023-07-25T07:52:13.502Z,6.30
2023-07-25T07:57:42.069Z,4.10
2023-07-25T08:03:04.573Z,3.92
2023-07-25T08:08:26.934Z,3.80
2023-07-25T08:13:50.148Z,4.22
2023-07-25T08:19:12.200Z,8.13
2023-07-25T08:24:34.437Z,11.27
2023-07-25T08:29:58.048Z,8.82
2023-07-25T08:35:20.388Z,4.43
2023-07-25T08:40:43.863Z,8.05
2023-07-25T08:46:08.561Z,10.43
2023-07-25T08:51:33.745Z,17.20
2023-07-25T08:56:56.848Z,4.38
2023-07-25T09:02:20.971Z,6.50
2023-07-25T09:07:43.253Z,6.30
2023-07-25T09:13:05.738Z,4.70
2023-07-25T09:18:29.229Z,5.82
2023-07-25T09:23:54.346Z,7.28
2023-07-25T09:29:18.540Z,6.25
2023-07-25T09:34:45.541Z,4.43
2023-07-25T09:40:09.805Z,11.65
2023-07-25T09:45:37.898Z,4.50
2023-07-25T09:51:01.276Z,4.43
2023-07-25T09:56:24.249Z,6.13
2023-07-25T10:01:46.928Z,6.35
2023-07-25T10:07:11.022Z,8.23
2023-07-25T10:12:33.089Z,5.72
2023-07-25T10:18:02.960Z,6.80
2023-07-25T10:23:33.321Z,3.30
2023-07-25T10:28:55.520Z,6.75
2023-07-25T10:34:17.951Z,6.50
2023-07-25T10:39:41.375Z,4.82
2023-07-25T10:50:29.705Z,8.85
2023-07-25T10:56:09.029Z,4.28
2023-07-25T11:01:40.934Z,9.18
2023-07-25T11:07:10.725Z,10.77
2023-07-25T11:12:34.093Z,3.53
2023-07-25T11:17:57.860Z,8.35
2023-07-25T11:23:22.613Z,18.13
2023-07-25T11:28:44.769Z,12.90
2023-07-25T11:34:12.300Z,4.80
2023-07-25T11:44:55.659Z,7.60
2023-07-25T11:50:26.360Z,5.95
2023-07-25T11:55:52.455Z,11.23
2023-07-25T12:01:14.570Z,5.75
2023-07-25T12:06:38.023Z,5.00
2023-07-25T12:12:00.241Z,6.60
2023-07-25T12:17:22.339Z,2.85
2023-07-25T12:22:48.954Z,5.63
2023-07-25T12:28:11.069Z,3.15
2023-07-25T12:33:33.889Z,2.80
2023-07-25T12:38:59.138Z,7.93
2023-07-25T12:44:26.526Z,5.68
2023-07-25T12:49:48.488Z,3.92
2023-07-25T12:55:11.982Z,4.70
2023-07-25T13:00:34.128Z,4.18
2023-07-25T13:05:56.545Z,3.85
2023-07-25T13:11:19.985Z,8.73
2023-07-25T13:16:42.244Z,6.57
2023-07-25T13:22:04.550Z,6.63
2023-07-25T13:27:29.134Z,5.60
2023-07-25T13:32:51.362Z,5.05
2023-07-25T13:38:13.466Z,3.90
2023-07-25T13:43:37.686Z,10.07
2023-07-25T13:48:59.588Z,4.15
2023-07-25T13:54:21.765Z,4.75
2023-07-25T13:59:45.351Z,8.73
2023-07-25T14:05:07.920Z,8.02
2023-07-25T14:10:30.523Z,3.67
2023-07-25T14:15:55.879Z,3.72
2023-07-25T14:21:18.020Z,5.75
2023-07-25T14:26:40.280Z,5.85
2023-07-25T14:32:03.801Z,7.10
2023-07-25T14:37:31.314Z,8.40
2023-07-25T14:43:02.182Z,11.75
2023-07-25T14:48:25.422Z,4.40
2023-07-25T14:53:47.433Z,4.80
2023-07-25T14:59:09.691Z,4.57
2023-07-25T15:04:33.158Z,6.53
2023-07-25T15:09:55.971Z,8.85
2023-07-25T15:15:18.782Z,5.72
2023-07-25T15:20:42.062Z,15.07
2023-07-25T15:26:07.306Z,8.82
2023-07-25T15:31:29.763Z,10.13
2023-07-25T15:36:53.359Z,8.43
2023-07-25T15:42:15.388Z,11.13
2023-07-25T15:47:37.431Z,5.95
2023-07-25T15:53:01.884Z,9.85
2023-07-25T15:58:23.971Z,8.10
2023-07-25T16:03:46.670Z,12.73
2023-07-25T16:09:15.202Z,9.13
2023-07-25T16:14:37.711Z,13.35
2023-07-25T16:20:00.878Z,10.15
2023-07-25T16:25:26.476Z,6.30
2023-07-25T16:30:48.895Z,8.40
2023-07-25T16:36:11.002Z,9.05
2023-07-25T16:41:34.830Z,6.82
2023-07-25T16:46:56.804Z,8.02
2023-07-25T16:52:18.817Z,8.68
2023-07-25T16:57:42.465Z,6.40
2023-07-25T17:03:05.340Z,5.22
2023-07-25T17:08:27.647Z,6.80
2023-07-25T17:13:51.127Z,11.27
2023-07-25T17:19:14.769Z,7.65
2023-07-25T17:24:37.195Z,16.58
2023-07-25T17:30:00.841Z,12.80
2023-07-25T17:35:31.977Z,10.48
2023-07-25T17:40:58.233Z,5.75
2023-07-25T17:46:21.561Z,8.38
2023-07-25T17:51:43.723Z,7.60
2023-07-25T17:57:06.121Z,14.02
2023-07-25T18:02:29.488Z,7.93
2023-07-25T18:07:51.668Z,7.10
2023-07-25T18:13:13.954Z,11.00
2023-07-25T18:18:37.216Z,15.70
2023-07-25T18:23:59.467Z,7.13
2023-07-25T18:29:21.526Z,11.63
2023-07-25T18:34:44.834Z,8.82
2023-07-25T18:40:08.278Z,7.85
2023-07-25T18:45:30.578Z,4.80
2023-07-25T18:50:54.436Z,9.20
2023-07-25T18:56:21.476Z,6.70
2023-07-25T19:01:43.532Z,5.38
2023-07-25T19:07:07.673Z,16.08
2023-07-25T19:12:29.606Z,15.38
2023-07-25T19:17:51.911Z,7.80
2023-07-25T19:23:24.791Z,7.10
2023-07-25T19:28:47.606Z,7.38
2023-07-25T19:34:09.453Z,8.75
2023-07-25T19:39:34.888Z,6.72
2023-07-25T19:44:57.068Z,19.23
2023-07-25T19:50:18.939Z,7.22
2023-07-25T19:55:42.487Z,4.40
2023-07-25T20:01:06.620Z,12.63
2023-07-25T20:06:28.684Z,11.52
2023-07-25T20:11:52.018Z,3.92
2023-07-25T20:17:13.908Z,4.97
2023-07-25T20:22:36.358Z,5.95
2023-07-25T20:28:00.090Z,13.52
2023-07-25T20:33:22.647Z,3.25
2023-07-25T20:38:47.583Z,7.43
2023-07-25T20:44:11.018Z,2.42
2023-07-25T20:49:33.220Z,2.72
2023-07-25T20:54:55.163Z,4.15
2023-07-25T21:00:19.036Z,5.20
2023-07-25T21:05:41.248Z,3.83
2023-07-25T21:11:03.280Z,2.70
2023-07-25T21:16:26.739Z,7.05
2023-07-25T21:21:49.065Z,4.82
2023-07-25T21:27:11.173Z,9.85
2023-07-25T21:32:35.306Z,3.83
2023-07-25T21:37:52.610Z,9.73
2023-07-25T21:43:14.559Z,5.82
2023-07-25T21:48:37.769Z,6.03
2023-07-25T21:54:00.008Z,6.80
2023-07-25T21:59:22.178Z,7.55
2023-07-25T22:04:45.583Z,5.45
2023-07-25T22:10:08.067Z,6.85
2023-07-25T22:15:30.199Z,3.67
2023-07-25T22:20:53.977Z,6.82
2023-07-25T22:26:16.236Z,5.55
2023-07-25T22:31:38.616Z,3.97
2023-07-25T22:37:02.020Z,3.60
2023-07-25T22:42:30.421Z,4.57
2023-07-25T22:47:52.583Z,8.18
2023-07-25T22:53:15.832Z,10.30
2023-07-25T22:58:37.670Z,8.55
2023-07-25T23:03:59.950Z,8.48
2023-07-25T23:09:23.196Z,4.68
2023-07-25T23:14:45.404Z,6.93
2023-07-25T23:20:08.423Z,7.18
2023-07-25T23:25:31.644Z,6.35
2023-07-25T23:30:53.483Z,5.80
2023-07-25T23:36:17.166Z,11.85
2023-07-25T23:41:40.613Z,9.32
2023-07-25T23:47:02.902Z,6.75
2023-07-25T23:52:24.981Z,5.97
2023-07-25T23:57:48.892Z,4.75
